createdAt,value
2023-02-17T00:01:33.891Z,42.17
2023-02-17T00:04:04.526Z,40.52
2023-02-17T00:06:35.385Z,44.20
2023-02-17T00:09:08.444Z,42.27
2023-02-17T00:11:41.776Z,38.98
2023-02-17T00:14:15.018Z,42.05
2023-02-17T00:16:49.628Z,47.53
2023-02-17T00:19:25.616Z,42.13
2023-02-17T00:22:02.563Z,45.30
2023-02-17T00:24:36.015Z,42.10
2023-02-17T00:27:12.924Z,43.08
2023-02-17T00:29:46.729Z,41.05
2023-02-17T00:32:21.069Z,43.92
2023-02-17T00:34:56.996Z,43.52
2023-02-17T00:37:27.988Z,43.73
2023-02-17T00:40:00.923Z,45.23
2023-02-17T00:42:36.142Z,43.90
2023-02-17T00:45:09.875Z,40.98
2023-02-17T00:47:43.657Z,41.95
2023-02-17T00:50:15.848Z,46.95
2023-02-17T00:52:48.869Z,44.80
2023-02-17T00:55:22.143Z,43.33
2023-02-17T00:57:56.205Z,42.77
2023-02-17T01:00:29.018Z,44.13
2023-02-17T01:03:01.139Z,44.95
2023-02-17T01:05:34.575Z,44.73
2023-02-17T01:08:06.961Z,46.15
2023-02-17T01:10:44.948Z,49.15
2023-02-17T01:13:21.011Z,48.13
2023-02-17T01:15:55.323Z,45.85
2023-02-17T01:18:33.301Z,48.60
2023-02-17T01:21:04.745Z,54.10
2023-02-17T01:23:36.614Z,51.23
2023-02-17T01:26:20.053Z,52.88
2023-02-17T01:28:53.086Z,47.50
2023-02-17T01:31:28.426Z,49.33
2023-02-17T01:34:06.654Z,48.20
2023-02-17T01:36:42.802Z,50.70
2023-02-17T01:39:17.762Z,50.88
2023-02-17T01:41:49.502Z,47.25
2023-02-17T01:44:24.616Z,52.17
2023-02-17T01:46:59.258Z,51.28
2023-02-17T01:49:37.343Z,50.12
2023-02-17T01:52:11.813Z,48.65
2023-02-17T01:54:51.616Z,49.83
2023-02-17T01:57:27.422Z,49.30
2023-02-17T02:00:02.019Z,46.05
2023-02-17T02:02:34.335Z,47.85
2023-02-17T02:05:16.361Z,47.67
2023-02-17T02:07:51.111Z,46.23
2023-02-17T02:10:24.608Z,46.30
2023-02-17T02:12:59.397Z,44.90
2023-02-17T02:15:34.121Z,47.73
2023-02-17T02:18:10.620Z,45.98
2023-02-17T02:20:56.172Z,48.08
2023-02-17T02:23:34.072Z,47.00
2023-02-17T02:26:25.208Z,45.45
2023-02-17T02:29:08.183Z,44.42
2023-02-17T02:31:48.697Z,42.50
2023-02-17T02:34:25.807Z,43.85
2023-02-17T02:37:09.432Z,41.40
2023-02-17T02:39:43.286Z,42.27
2023-02-17T02:42:20.181Z,42.70
2023-02-17T02:44:52.373Z,41.55
2023-02-17T02:47:43.446Z,40.92
2023-02-17T02:50:17.923Z,41.25
2023-02-17T02:55:46.793Z,40.43
2023-02-17T02:58:22.867Z,38.05
2023-02-17T03:01:06.062Z,38.90
2023-02-17T03:03:42.255Z,36.60
2023-02-17T03:06:26.195Z,40.23
2023-02-17T03:09:05.113Z,38.05
2023-02-17T03:11:38.099Z,35.68
2023-02-17T03:14:13.983Z,40.17
2023-02-17T03:16:48.333Z,37.78
2023-02-17T03:19:22.145Z,35.28
2023-02-17T03:22:06.908Z,34.03
2023-02-17T03:24:37.814Z,36.53
2023-02-17T03:27:08.311Z,37.40
2023-02-17T03:29:39.488Z,37.93
2023-02-17T03:32:10.509Z,35.00
2023-02-17T03:34:41.939Z,37.30
2023-02-17T03:37:12.441Z,34.78
2023-02-17T03:39:43.231Z,35.98
2023-02-17T03:42:14.353Z,36.98
2023-02-17T03:44:44.925Z,35.10
2023-02-17T03:47:15.575Z,36.33
2023-02-17T03:49:46.061Z,34.60
2023-02-17T03:52:16.854Z,36.08
2023-02-17T03:54:47.429Z,35.75
2023-02-17T03:57:17.983Z,35.25
2023-02-17T03:59:48.634Z,35.17
2023-02-17T04:02:19.203Z,34.95
2023-02-17T04:04:49.953Z,32.63
2023-02-17T04:07:20.515Z,34.98
2023-02-17T04:09:51.075Z,33.50
2023-02-17T04:12:21.611Z,32.40
2023-02-17T04:14:52.117Z,31.68
2023-02-17T04:17:22.633Z,35.95
2023-02-17T04:19:53.886Z,32.17
2023-02-17T04:22:24.736Z,36.65
2023-02-17T04:24:55.232Z,31.93
2023-02-17T04:27:25.780Z,35.33
2023-02-17T04:29:56.338Z,34.20
2023-02-17T04:32:27.287Z,31.15
2023-02-17T04:34:57.845Z,33.33
2023-02-17T04:37:28.397Z,35.68
2023-02-17T04:40:00.181Z,34.65
2023-02-17T04:42:30.716Z,35.00
2023-02-17T04:45:01.316Z,33.80
2023-02-17T04:47:31.010Z,35.10
2023-02-17T04:50:01.516Z,34.90
2023-02-17T04:52:32.038Z,34.05
2023-02-17T04:55:02.566Z,36.13
2023-02-17T04:57:33.182Z,36.35
2023-02-17T05:00:05.054Z,32.90
2023-02-17T05:02:35.581Z,34.80
2023-02-17T05:05:06.235Z,34.83
2023-02-17T05:07:36.885Z,36.30
2023-02-17T05:10:08.008Z,39.33
2023-02-17T05:12:40.493Z,36.10
2023-02-17T05:15:12.375Z,33.65
2023-02-17T05:17:42.930Z,32.42
2023-02-17T05:20:13.868Z,34.80
2023-02-17T05:22:44.511Z,35.85
2023-02-17T05:25:15.477Z,33.95
2023-02-17T05:27:47.709Z,31.87
2023-02-17T05:30:19.130Z,36.33
2023-02-17T05:32:49.975Z,36.20
2023-02-17T05:35:20.681Z,33.28
2023-02-17T05:37:53.062Z,35.05
2023-02-17T05:40:23.676Z,33.02
2023-02-17T05:42:54.344Z,36.15
2023-02-17T05:45:24.933Z,36.98
2023-02-17T05:47:56.648Z,37.23
2023-02-17T05:50:28.556Z,37.80
2023-02-17T05:52:59.231Z,36.50
2023-02-17T05:55:31.502Z,35.65
2023-02-17T05:58:02.143Z,37.67
2023-02-17T06:00:32.969Z,34.80
2023-02-17T06:03:03.597Z,36.13
2023-02-17T06:05:34.294Z,33.40
2023-02-17T06:08:04.860Z,34.38
2023-02-17T06:10:37.900Z,35.60
2023-02-17T06:13:11.193Z,36.17
2023-02-17T06:15:42.863Z,37.15
2023-02-17T06:18:14.526Z,38.92
2023-02-17T06:20:47.649Z,34.53
2023-02-17T06:23:24.830Z,35.88
2023-02-17T06:26:00.441Z,38.73
2023-02-17T06:28:35.056Z,38.95
2023-02-17T06:31:16.901Z,37.90
2023-02-17T06:33:48.747Z,39.35
2023-02-17T06:36:22.506Z,36.80
2023-02-17T06:39:02.307Z,37.58
2023-02-17T06:41:33.975Z,39.63
2023-02-17T06:44:07.091Z,39.90
2023-02-17T06:46:41.366Z,38.55
2023-02-17T06:49:15.093Z,35.73
2023-02-17T06:51:47.733Z,38.00
2023-02-17T06:54:20.418Z,38.35
2023-02-17T06:56:52.478Z,37.25
2023-02-17T06:59:24.560Z,41.63
2023-02-17T07:01:57.040Z,39.83
2023-02-17T07:04:28.695Z,36.10
2023-02-17T07:07:03.254Z,43.92
2023-02-17T07:13:06.027Z,40.15
2023-02-17T07:15:44.592Z,39.70
2023-02-17T07:20:56.929Z,41.30
2023-02-17T07:23:33.766Z,37.90
2023-02-17T07:26:12.645Z,39.60
2023-02-17T07:29:00.963Z,39.40
2023-02-17T07:31:38.407Z,39.95
2023-02-17T07:34:11.320Z,38.67
2023-02-17T07:36:44.915Z,36.80
2023-02-17T07:39:18.521Z,37.20
2023-02-17T07:41:51.662Z,41.65
2023-02-17T07:44:25.068Z,37.78
2023-02-17T07:46:57.825Z,40.70
2023-02-17T07:49:30.556Z,39.67
2023-02-17T07:52:08.004Z,39.45
2023-02-17T07:54:44.716Z,39.45
2023-02-17T07:57:18.013Z,38.42
2023-02-17T07:59:50.534Z,38.17
2023-02-17T08:02:23.726Z,38.08
2023-02-17T08:04:56.094Z,40.08
2023-02-17T08:10:16.763Z,40.55
2023-02-17T08:13:12.788Z,37.40
2023-02-17T08:15:45.261Z,39.35
2023-02-17T08:18:19.835Z,40.90
2023-02-17T08:20:53.254Z,39.95
2023-02-17T08:23:26.218Z,43.37
2023-02-17T08:25:59.798Z,43.25
2023-02-17T08:28:34.892Z,42.70
2023-02-17T08:31:12.144Z,45.05
2023-02-17T08:33:57.752Z,40.23
2023-02-17T08:36:48.480Z,38.98
2023-02-17T08:39:21.872Z,41.98
2023-02-17T08:41:59.288Z,37.80
2023-02-17T08:44:39.344Z,38.20
2023-02-17T08:47:13.952Z,40.15
2023-02-17T08:49:46.616Z,36.48
2023-02-17T08:52:19.611Z,36.98
2023-02-17T08:54:59.498Z,38.25
2023-02-17T08:57:33.495Z,36.08
2023-02-17T09:00:10.836Z,38.13
2023-02-17T09:02:46.231Z,36.90
2023-02-17T09:05:22.021Z,36.58
2023-02-17T09:07:55.212Z,35.35
2023-02-17T09:10:31.611Z,38.50
2023-02-17T09:13:02.951Z,39.73
2023-02-17T09:15:41.510Z,37.67
2023-02-17T09:18:14.215Z,36.00
2023-02-17T09:20:50.716Z,31.97
2023-02-17T09:23:23.902Z,37.03
2023-02-17T09:26:12.968Z,35.00
2023-02-17T09:28:50.394Z,38.80
2023-02-17T09:31:24.961Z,36.65
2023-02-17T09:33:59.612Z,37.33
2023-02-17T09:36:40.335Z,30.37
2023-02-17T09:39:16.567Z,39.83
2023-02-17T09:41:52.276Z,29.18
2023-02-17T09:44:32.636Z,40.50
2023-02-17T09:47:18.598Z,36.25
2023-02-17T09:50:00.471Z,37.17
2023-02-17T09:52:52.176Z,36.33
2023-02-17T09:55:36.969Z,37.13
2023-02-17T09:58:31.123Z,33.10
2023-02-17T10:01:10.317Z,32.13
2023-02-17T10:03:55.249Z,32.42
2023-02-17T10:06:34.666Z,32.17
2023-02-17T10:09:18.339Z,34.38
2023-02-17T10:12:06.828Z,31.42
2023-02-17T10:14:53.293Z,34.35
2023-02-17T10:17:35.042Z,31.47
2023-02-17T10:20:12.761Z,34.90
2023-02-17T10:22:48.601Z,32.23
2023-02-17T10:25:23.820Z,34.73
2023-02-17T10:28:13.586Z,32.88
2023-02-17T10:31:00.383Z,33.48
2023-02-17T10:33:41.444Z,32.83
2023-02-17T10:36:54.455Z,30.20
2023-02-17T10:39:40.171Z,31.12
2023-02-17T10:42:42.469Z,30.32
2023-02-17T10:45:48.276Z,31.10
2023-02-17T10:48:32.526Z,28.25
2023-02-17T10:51:19.981Z,22.55
2023-02-17T10:53:56.585Z,25.68
2023-02-17T10:56:47.439Z,27.07
2023-02-17T10:59:39.742Z,26.90
2023-02-17T11:02:39.200Z,26.17
2023-02-17T11:05:13.128Z,27.22
2023-02-17T11:07:49.780Z,27.42
2023-02-17T11:10:25.678Z,24.05
2023-02-17T11:12:58.964Z,25.20
2023-02-17T11:15:34.817Z,24.72
2023-02-17T11:18:11.567Z,25.17
2023-02-17T11:20:44.258Z,23.47
2023-02-17T11:23:23.906Z,22.75
2023-02-17T11:26:04.089Z,25.20
2023-02-17T11:28:38.706Z,24.98
2023-02-17T11:31:26.229Z,26.48
2023-02-17T11:33:58.554Z,27.17
2023-02-17T11:36:33.058Z,25.32
2023-02-17T11:39:16.936Z,22.05
2023-02-17T11:41:49.306Z,21.37
2023-02-17T11:44:28.899Z,23.50
2023-02-17T11:47:06.138Z,23.75
2023-02-17T11:50:08.297Z,24.07
2023-02-17T11:53:03.889Z,26.07
2023-02-17T11:55:46.632Z,25.05
2023-02-17T11:58:27.419Z,24.80
2023-02-17T12:01:13.280Z,24.52
2023-02-17T12:06:42.808Z,25.32
2023-02-17T12:09:43.759Z,24.85
2023-02-17T12:12:21.816Z,34.33
2023-02-17T12:15:06.228Z,29.87
2023-02-17T12:17:53.834Z,27.13
2023-02-17T12:20:41.264Z,29.45
2023-02-17T12:23:26.150Z,27.85
2023-02-17T12:26:14.410Z,28.62
2023-02-17T12:29:10.539Z,22.07
2023-02-17T12:32:19.646Z,21.35
2023-02-17T12:35:26.462Z,22.10
2023-02-17T12:38:00.687Z,22.32
2023-02-17T12:40:40.916Z,20.50
2023-02-17T12:43:29.390Z,19.70
2023-02-17T12:46:05.607Z,18.42
2023-02-17T12:49:16.175Z,18.85
2023-02-17T12:51:56.013Z,18.12
2023-02-17T12:54:32.271Z,19.48
2023-02-17T12:57:14.110Z,18.48
2023-02-17T12:59:54.768Z,19.10
2023-02-17T13:02:28.784Z,18.00
2023-02-17T13:05:04.702Z,16.70
2023-02-17T13:07:39.749Z,17.35
2023-02-17T13:10:31.986Z,17.82
2023-02-17T13:13:08.482Z,17.98
2023-02-17T13:15:44.149Z,16.25
2023-02-17T13:18:38.584Z,15.60
2023-02-17T13:21:38.024Z,14.85
2023-02-17T13:24:18.530Z,14.90
2023-02-17T13:26:50.677Z,14.00
2023-02-17T13:29:30.216Z,13.48
2023-02-17T13:32:04.111Z,13.62
2023-02-17T13:34:39.452Z,13.55
2023-02-17T13:37:36.398Z,13.93
2023-02-17T13:40:22.303Z,13.48
2023-02-17T13:43:01.879Z,14.53
2023-02-17T13:45:39.219Z,13.08
2023-02-17T13:48:18.686Z,12.73
2023-02-17T13:50:53.176Z,13.88
2023-02-17T13:53:46.816Z,12.20
2023-02-17T13:56:32.821Z,14.07
2023-02-17T13:59:19.760Z,13.45
2023-02-17T14:01:55.586Z,13.20
2023-02-17T14:04:34.482Z,13.48
2023-02-17T14:07:10.139Z,12.63
2023-02-17T14:09:49.259Z,13.45
2023-02-17T14:12:26.231Z,13.15
2023-02-17T14:14:57.242Z,12.80
2023-02-17T14:17:35.422Z,13.32
2023-02-17T14:20:17.844Z,12.20
2023-02-17T14:23:03.539Z,13.10
2023-02-17T14:25:33.328Z,13.15
2023-02-17T14:28:05.045Z,13.13
2023-02-17T14:30:39.435Z,13.75
2023-02-17T14:33:23.112Z,13.68
2023-02-17T14:36:00.650Z,13.22
2023-02-17T14:38:46.739Z,16.37
2023-02-17T14:41:19.812Z,15.43
2023-02-17T14:43:53.371Z,13.40
2023-02-17T14:46:26.436Z,13.08
2023-02-17T14:49:01.370Z,12.77
2023-02-17T14:51:41.272Z,16.12
2023-02-17T14:54:19.932Z,13.83
2023-02-17T14:57:03.180Z,14.93
2023-02-17T14:59:38.156Z,16.02
2023-02-17T15:02:24.031Z,14.25
2023-02-17T15:05:01.984Z,14.60
2023-02-17T15:07:36.392Z,14.85
2023-02-17T15:10:20.985Z,14.70
2023-02-17T15:12:55.497Z,16.07
2023-02-17T15:15:28.997Z,16.25
2023-02-17T15:18:05.095Z,17.50
2023-02-17T15:20:37.537Z,13.98
2023-02-17T15:23:16.661Z,14.10
2023-02-17T15:25:48.974Z,14.95
2023-02-17T15:28:21.482Z,12.25
2023-02-17T15:30:57.873Z,12.98
2023-02-17T15:33:29.159Z,11.55
2023-02-17T15:36:02.406Z,11.03
2023-02-17T15:38:32.972Z,11.00
2023-02-17T15:41:05.916Z,11.45
2023-02-17T15:43:37.623Z,10.60
2023-02-17T15:46:19.168Z,10.70
2023-02-17T15:48:50.139Z,11.95
2023-02-17T15:51:21.673Z,9.83
2023-02-17T15:53:53.864Z,8.53
2023-02-17T15:56:27.490Z,9.35
2023-02-17T15:59:00.563Z,11.73
2023-02-17T16:01:34.142Z,10.85
2023-02-17T16:04:05.093Z,10.45
2023-02-17T16:06:35.596Z,10.40
2023-02-17T16:09:06.532Z,9.25
2023-02-17T16:11:39.702Z,11.40
2023-02-17T16:14:12.878Z,9.70
2023-02-17T16:16:43.609Z,10.15
2023-02-17T16:19:14.487Z,9.70
2023-02-17T16:21:44.901Z,9.78
2023-02-17T16:24:15.523Z,10.18
2023-02-17T16:26:46.391Z,11.48
2023-02-17T16:29:22.559Z,10.50
2023-02-17T16:31:53.191Z,10.63
2023-02-17T16:34:26.336Z,11.03
2023-02-17T16:36:59.927Z,10.70
2023-02-17T16:39:30.734Z,10.68
2023-02-17T16:42:01.241Z,12.68
2023-02-17T16:44:32.047Z,13.88
2023-02-17T16:47:02.954Z,13.22
2023-02-17T16:49:41.425Z,13.43
2023-02-17T16:52:27.102Z,11.57
2023-02-17T16:54:57.746Z,10.43
2023-02-17T16:57:29.839Z,10.98
2023-02-17T17:00:00.587Z,10.20
2023-02-17T17:02:31.371Z,11.25
2023-02-17T17:05:01.980Z,11.15
2023-02-17T17:07:33.401Z,10.50
2023-02-17T17:10:16.372Z,10.08
2023-02-17T17:12:38.118Z,9.23
2023-02-17T17:15:10.799Z,9.28
2023-02-17T17:17:44.613Z,9.08
2023-02-17T17:20:21.236Z,10.05
2023-02-17T17:22:51.819Z,9.25
2023-02-17T17:25:22.381Z,8.75
2023-02-17T17:27:52.914Z,8.53
2023-02-17T17:30:27.239Z,9.48
2023-02-17T17:32:57.718Z,8.00
2023-02-17T17:35:29.307Z,8.65
2023-02-17T17:37:59.907Z,8.15
2023-02-17T17:40:33.896Z,8.53
2023-02-17T17:43:04.525Z,8.58
2023-02-17T17:45:35.266Z,7.95
2023-02-17T17:48:06.670Z,7.55
2023-02-17T17:50:37.342Z,7.50
2023-02-17T17:53:08.026Z,9.55
2023-02-17T17:55:40.873Z,7.00
2023-02-17T17:58:11.544Z,7.10
2023-02-17T18:00:42.121Z,7.15
2023-02-17T18:03:13.842Z,6.62
2023-02-17T18:05:45.782Z,6.58
2023-02-17T18:08:17.004Z,6.10
2023-02-17T18:10:47.874Z,6.55
2023-02-17T18:13:18.453Z,6.72
2023-02-17T18:15:49.508Z,6.50
2023-02-17T18:18:24.061Z,6.03
2023-02-17T18:20:54.566Z,6.37
2023-02-17T18:23:26.249Z,6.67
2023-02-17T18:25:58.012Z,6.47
2023-02-17T18:28:28.985Z,6.00
2023-02-17T18:30:59.632Z,5.62
2023-02-17T18:33:30.190Z,7.08
2023-02-17T18:36:10.399Z,6.08
2023-02-17T18:38:40.935Z,5.75
2023-02-17T18:41:21.038Z,6.50
2023-02-17T18:43:52.322Z,5.25
2023-02-17T18:46:25.177Z,5.33
2023-02-17T18:48:56.716Z,5.08
2023-02-17T18:51:27.984Z,5.55
2023-02-17T18:54:00.836Z,4.95
2023-02-17T18:56:34.129Z,5.05
2023-02-17T18:59:04.597Z,5.65
2023-02-17T19:01:38.786Z,4.90
2023-02-17T19:04:10.044Z,6.05
2023-02-17T19:06:42.730Z,5.17
2023-02-17T19:09:13.224Z,5.25
2023-02-17T19:11:43.766Z,5.00
2023-02-17T19:14:14.316Z,4.75
2023-02-17T19:16:46.924Z,4.42
2023-02-17T19:19:17.577Z,5.15
2023-02-17T19:21:48.663Z,6.70
2023-02-17T19:24:19.144Z,4.10
2023-02-17T19:26:50.951Z,5.65
2023-02-17T19:29:22.856Z,5.58
2023-02-17T19:31:53.697Z,5.28
2023-02-17T19:34:24.546Z,5.28
2023-02-17T19:36:55.130Z,4.72
2023-02-17T19:39:25.707Z,5.12
2023-02-17T19:41:56.352Z,5.05
2023-02-17T19:44:26.823Z,5.00
2023-02-17T19:46:57.659Z,4.42
2023-02-17T19:49:28.245Z,5.40
2023-02-17T19:51:58.764Z,4.30
2023-02-17T19:54:29.643Z,5.30
2023-02-17T19:57:01.276Z,5.03
2023-02-17T19:59:34.045Z,5.28
2023-02-17T20:02:04.650Z,5.75
2023-02-17T20:04:35.379Z,4.33
2023-02-17T20:07:05.969Z,3.90
2023-02-17T20:09:37.621Z,6.35
2023-02-17T20:12:09.021Z,5.00
2023-02-17T20:14:39.604Z,3.83
2023-02-17T20:17:11.723Z,3.37
2023-02-17T20:19:43.410Z,4.05
2023-02-17T20:22:14.085Z,3.62
2023-02-17T20:24:47.598Z,4.08
2023-02-17T20:27:28.056Z,3.30
2023-02-17T20:30:06.741Z,2.80
2023-02-17T20:32:37.968Z,3.50
2023-02-17T20:35:12.023Z,3.05
2023-02-17T20:37:42.684Z,4.00
2023-02-17T20:40:13.340Z,4.60
2023-02-17T20:42:45.095Z,2.45
2023-02-17T20:45:15.622Z,3.02
2023-02-17T20:47:46.550Z,2.62
2023-02-17T20:50:20.337Z,3.27
2023-02-17T20:52:51.296Z,3.02
2023-02-17T20:55:23.022Z,3.50
2023-02-17T20:57:54.924Z,5.47
2023-02-17T21:00:27.961Z,3.98
2023-02-17T21:02:59.177Z,4.80
2023-02-17T21:05:33.801Z,4.65
2023-02-17T21:08:08.022Z,4.60
2023-02-17T21:10:41.264Z,3.40
2023-02-17T21:13:12.501Z,3.67
2023-02-17T21:15:47.496Z,3.35
2023-02-17T21:18:20.933Z,4.80
2023-02-17T22:00:59.354Z,4.40
2023-02-17T22:03:30.041Z,6.92
2023-02-17T22:06:00.674Z,6.85
2023-02-17T22:08:34.216Z,5.65
2023-02-17T22:11:05.169Z,6.90
2023-02-17T22:13:35.682Z,6.45
2023-02-17T22:16:06.843Z,7.17
2023-02-17T22:18:37.616Z,7.65
2023-02-17T22:21:15.319Z,6.17
2023-02-17T22:23:46.295Z,6.55
2023-02-17T22:26:22.667Z,6.83
2023-02-17T22:28:54.412Z,9.53
2023-02-17T22:31:27.569Z,8.00
2023-02-17T22:33:59.929Z,7.47
2023-02-17T22:36:36.258Z,7.05
2023-02-17T22:39:09.043Z,5.50
2023-02-17T22:41:41.041Z,6.97
2023-02-17T22:44:11.662Z,5.92
2023-02-17T22:46:42.185Z,8.25
2023-02-17T22:49:13.853Z,8.03
2023-02-17T22:51:44.335Z,8.93
2023-02-17T22:54:14.857Z,5.55
2023-02-17T22:56:45.386Z,7.87
2023-02-17T22:59:15.973Z,7.83
2023-02-17T23:01:46.873Z,8.28
2023-02-17T23:04:18.330Z,6.45
2023-02-17T23:06:49.904Z,9.03
2023-02-17T23:09:21.550Z,8.80
2023-02-17T23:11:54.351Z,8.23
2023-02-17T23:14:33.979Z,8.90
2023-02-17T23:17:07.329Z,7.70
2023-02-17T23:19:41.021Z,7.53
2023-02-17T23:22:16.826Z,8.70
2023-02-17T23:24:49.005Z,8.05
2023-02-17T23:27:19.636Z,10.72
2023-02-17T23:29:50.253Z,8.40
2023-02-17T23:32:20.778Z,6.17
2023-02-17T23:34:51.800Z,6.58
2023-02-17T23:37:23.695Z,7.87
2023-02-17T23:39:54.317Z,6.75
2023-02-17T23:42:24.949Z,7.87
2023-02-17T23:44:56.701Z,6.58
2023-02-17T23:47:27.178Z,7.60
2023-02-17T23:49:58.881Z,8.03
2023-02-17T23:52:29.482Z,7.53
2023-02-17T23:55:00.086Z,6.97
2023-02-17T23:57:30.570Z,9.75
